Kenilworth, NJ

7:09 PM EDT on October 22, 2014 (GMT -0400)
Kenilworth, N.J. | Change Station
CLOSE
Current Station
Personal Weather Station
Location: Kenilworth, NJ
Elevation: 92 ft
Nearby Weather Stations

Elev 92 ft 40.67 °N, 74.30 °W | Updated 6 minutes ago

Rain
Rain
51.7 °F
Feels Like 51.7 °F
N
4.0
Wind Variable Wind from NNE
Gusts 8.0 mph

Today
High -- | Low -- °F
--% Chance of Precip.
Yesterday
High -- | Low -- °F
Precip. -- in
7:15 AM 6:06 PM
Waning Crescent, 1% visible
Pressure 29.84 in
Visibility 5.0 miles
Clouds Scattered Clouds 2200 ft
Mostly Cloudy 2700 ft
Overcast 3100 ft
Dew Point 50 °F
Humidity 94%
Rainfall 0.40 in
Snow Depth Not available.
UV 0.0 out of 12
Pollen .30 out of 12
Air Quality Not available.
Flu Activity Sporadic
METAR KLDJ 222255Z AUTO 01010G14KT 5SM RA SCT022 BKN027 OVC031 14/12 A2984 RMK AO2 LTG DSNT S P0006 T01350116

More Conditions Fewer Conditions

Pressure 29.84 in
Visibility 5.0 miles
Clouds Scattered Clouds 2200 ft
Mostly Cloudy 2700 ft
Overcast 3100 ft
Dew Point 50 °F
Humidity 94%
Rainfall 0.40 in
Snow Depth Not available.
UV 0.0 out of 12
Pollen .30 out of 12
Air Quality Not available.
Flu Activity Sporadic
METAR KLDJ 222255Z AUTO 01010G14KT 5SM RA SCT022 BKN027 OVC031 14/12 A2984 RMK AO2 LTG DSNT S P0006 T01350116

More Conditions Fewer Conditions

10-Day Weather Forecast

Almanac

Astronomy

Oct. 22, 2014 Rise Set
Actual Time 7:15 AM EDT 6:06 PM EDT
Civil Twilight 6:48 AM EDT 6:34 PM EDT
Nautical Twilight 6:16 AM EDT 7:06 PM EDT
Astronomical Twilight 5:44 AM EDT 7:38 PM EDT
Moon 5:54 AM EDT 5:32 PM EDT
Length of Visible Light 11h 46m
Length of Day
10h 50m
Tomorrow will be 2m 31s shorter.
Waning Crescent, 1% of the Moon is Illuminated
Today
Waning Crescent
Oct 23
New
Oct 30
First Quarter
Nov 6
Full
Nov 14
Last Quarter

Today's Extremes

State Highs State Lows

Community

WunderPhotos

Upload Photos

1,764,071 photos uploaded!

WunderBlogs® & News

Nearby

Snow Depth

Station Depth Elevation
No new snow has been reported.

Earthquake Activity

City Distance Mag. Time & Date
No recent earthquake activity has been reported nearby.
Minimum magnitude displayed is 2.5.

Coastal Water Temperatures

Place Temperature
Sandy Hook, NJ 61.0 °F
The Battery, NY 63.0 °F
Bergen Point West Reach, NJ 62.1 °F
Kings Point, NY 61.0 °F

Nearby Weather Stations